aviador You're here:

PANW Decoded Metar

NEW STUYAHOK in AK, USA
Report Time2018-04-24 12:26:00
UTC Time2018-04-24 12:39:17
Flight Rules mvfr MVFR
Wind100° at 14 Gusting to 20 kt
W.Decomp.*RWY 14: 7.8 kt HW 11.6 kt LCW
W.Rank100° ranks 5
Current wind is above 100° avg. (11.8)
Visibility9999 m
Phenomena:Light Rain
Clouds:Overcast 028 Hf
Expected CloudBase > 400 ft AGL from Temp-Dew spread
Ceiling2,800 ft
Temp03°C (ISA -11)
Dew Point02°C (93% RH)
AAT-3.7°C
QNH987 hPa
Density Alt-89 ft
Elevation302 ft
Report Wrong Elevation
Raw Report
PANW 241226Z AUTO 10014G20KT 10SM -RA OVC028 03/02 A2915 RMK AO2
PRESFR P0000=

Extra information for PANW:More info

Metar Taf Metar & Taf Last 4 Metars F.Rules Stats Wind Profile Meteogram Temp Stats Airport Information Weather charts Add Link Nearby VenuesMetar ALERT Operation Metar Decoded Social comments

AIRNAV info for PANW